createdAt,value
2022-11-23T00:01:26.293Z,1.28
2022-11-23T00:03:55.238Z,1.26
2022-11-23T00:06:23.523Z,1.28
2022-11-23T00:08:51.015Z,1.26
2022-11-23T00:11:19.754Z,1.23
2022-11-23T00:13:46.461Z,1.24
2022-11-23T00:16:21.623Z,1.22
2022-11-23T00:18:48.629Z,1.22
2022-11-23T00:21:16.590Z,1.23
2022-11-23T00:23:43.953Z,1.20
2022-11-23T00:26:11.636Z,1.17
2022-11-23T00:28:40.646Z,1.18
2022-11-23T00:31:08.351Z,1.18
2022-11-23T00:33:35.105Z,1.18
2022-11-23T00:36:04.069Z,1.15
2022-11-23T00:38:31.153Z,1.13
2022-11-23T00:40:58.811Z,1.14
2022-11-23T00:43:25.328Z,1.13
2022-11-23T00:46:03.066Z,1.11
2022-11-23T00:48:30.107Z,1.09
2022-11-23T00:50:56.748Z,1.06
2022-11-23T00:53:23.563Z,1.05
2022-11-23T00:55:54.287Z,1.04
2022-11-23T00:58:21.507Z,1.03
2022-11-23T01:00:48.578Z,1.03
2022-11-23T01:03:15.628Z,1.02
2022-11-23T01:05:42.684Z,1.06
2022-11-23T01:08:09.181Z,1.08
2022-11-23T01:10:35.756Z,1.05
2022-11-23T01:13:02.367Z,1.05
2022-11-23T01:15:28.910Z,1.01
2022-11-23T01:17:55.479Z,1.00
2022-11-23T01:20:21.986Z,0.99
2022-11-23T01:22:48.522Z,0.96
2022-11-23T01:25:15.113Z,0.93
2022-11-23T01:27:41.795Z,0.94
2022-11-23T01:30:08.975Z,0.97
2022-11-23T01:32:35.549Z,0.96
2022-11-23T01:35:02.083Z,0.93
2022-11-23T01:37:28.650Z,0.92
2022-11-23T01:39:55.201Z,0.90
2022-11-23T01:42:21.737Z,0.89
2022-11-23T01:44:48.356Z,0.87
2022-11-23T01:47:14.902Z,0.84
2022-11-23T01:49:46.494Z,0.83
2022-11-23T01:52:20.258Z,0.78
2022-11-23T01:54:50.451Z,0.74
2022-11-23T01:57:25.075Z,0.71
2022-11-23T01:59:53.240Z,0.67
2022-11-23T02:02:19.894Z,0.61
2022-11-23T02:04:49.258Z,0.55
2022-11-23T02:07:18.822Z,0.51
2022-11-23T02:09:46.848Z,0.47
2022-11-23T02:12:14.767Z,0.46
2022-11-23T02:14:42.278Z,0.40
2022-11-23T02:17:09.277Z,0.36
2022-11-23T02:19:35.676Z,0.32
2022-11-23T02:22:02.751Z,0.29
2022-11-23T02:24:33.617Z,0.26
2022-11-23T02:27:02.053Z,0.26
2022-11-23T02:29:29.848Z,0.29
2022-11-23T02:31:56.805Z,0.32
2022-11-23T02:34:23.368Z,0.33
2022-11-23T02:36:52.858Z,0.34
2022-11-23T02:39:27.539Z,0.32
2022-11-23T02:41:55.946Z,0.29
2022-11-23T02:44:50.662Z,0.29
2022-11-23T02:47:17.449Z,0.28
2022-11-23T02:49:47.698Z,0.29
2022-11-23T02:52:14.559Z,0.28
2022-11-23T02:54:41.161Z,0.31
2022-11-23T02:57:08.498Z,0.31
2022-11-23T02:59:35.360Z,0.28
2022-11-23T03:02:03.431Z,0.26
2022-11-23T03:04:30.157Z,0.24
2022-11-23T03:06:57.167Z,0.21
2022-11-23T03:09:26.077Z,0.19
2022-11-23T03:11:53.533Z,0.20
2022-11-23T03:14:20.850Z,0.20
2022-11-23T03:16:47.446Z,0.25
2022-11-23T03:19:14.071Z,0.28
2022-11-23T03:21:40.621Z,0.31
2022-11-23T03:24:07.154Z,0.40
2022-11-23T03:26:33.746Z,0.41
2022-11-23T03:29:00.251Z,0.43
2022-11-23T03:31:27.052Z,0.44
2022-11-23T03:33:53.592Z,0.42
2022-11-23T03:36:20.171Z,0.43
2022-11-23T03:38:46.737Z,0.43
2022-11-23T03:41:13.351Z,0.44
2022-11-23T03:43:39.915Z,0.43
2022-11-23T03:46:06.507Z,0.42
2022-11-23T03:48:33.036Z,0.43
2022-11-23T03:50:59.547Z,0.42
2022-11-23T03:53:26.463Z,0.40
2022-11-23T03:55:55.484Z,0.38
2022-11-23T03:58:22.082Z,0.37
2022-11-23T04:00:48.621Z,0.37
2022-11-23T04:03:15.358Z,0.34
2022-11-23T04:05:41.862Z,0.36
2022-11-23T04:08:09.552Z,0.36
2022-11-23T04:10:36.064Z,0.35
2022-11-23T04:13:02.876Z,0.37
2022-11-23T04:15:29.475Z,0.37
2022-11-23T04:17:56.154Z,0.40
2022-11-23T04:20:22.687Z,0.42
2022-11-23T04:22:49.274Z,0.44
2022-11-23T04:25:15.807Z,0.44
2022-11-23T04:27:42.441Z,0.41
2022-11-23T04:30:09.873Z,0.42
2022-11-23T04:32:36.418Z,0.41
2022-11-23T04:35:03.157Z,0.42
2022-11-23T04:37:29.777Z,0.41
2022-11-23T04:39:56.317Z,0.42
2022-11-23T04:42:22.926Z,0.41
2022-11-23T04:44:49.491Z,0.40
2022-11-23T04:47:16.124Z,0.38
2022-11-23T04:49:42.649Z,0.41
2022-11-23T04:52:09.167Z,0.39
2022-11-23T04:54:35.723Z,0.41
2022-11-23T04:57:02.254Z,0.43
2022-11-23T04:59:29.041Z,0.48
2022-11-23T05:01:55.642Z,0.45
2022-11-23T05:04:22.181Z,0.42
2022-11-23T05:06:48.804Z,0.40
2022-11-23T05:09:15.705Z,0.40
2022-11-23T05:11:42.339Z,0.39
2022-11-23T05:14:08.970Z,0.37
2022-11-23T05:16:35.644Z,0.35
2022-11-23T05:19:02.527Z,0.33
2022-11-23T05:21:29.162Z,0.31
2022-11-23T05:23:55.782Z,0.29
2022-11-23T05:26:22.398Z,0.27
2022-11-23T05:28:49.145Z,0.27
2022-11-23T05:31:15.718Z,0.24
2022-11-23T05:33:42.254Z,0.24
2022-11-23T05:36:09.359Z,0.22
2022-11-23T05:38:35.911Z,0.21
2022-11-23T05:41:02.438Z,0.21
2022-11-23T05:43:29.008Z,0.19
2022-11-23T05:45:59.052Z,0.16
2022-11-23T05:48:25.701Z,0.13
2022-11-23T05:50:52.388Z,0.14
2022-11-23T05:53:19.308Z,0.12
2022-11-23T05:55:46.238Z,0.10
2022-11-23T05:58:13.035Z,0.11
2022-11-23T06:00:39.555Z,0.13
2022-11-23T06:03:06.062Z,0.11
2022-11-23T06:05:32.988Z,0.10
2022-11-23T06:07:59.483Z,0.15
2022-11-23T06:10:26.020Z,0.16
2022-11-23T06:12:52.846Z,0.19
2022-11-23T06:15:19.555Z,0.19
2022-11-23T06:17:46.081Z,0.22
2022-11-23T06:20:12.769Z,0.21
2022-11-23T06:22:39.573Z,0.20
2022-11-23T06:25:06.596Z,0.20
2022-11-23T06:27:33.043Z,0.20
2022-11-23T06:29:59.527Z,0.21
2022-11-23T06:32:26.046Z,0.30
2022-11-23T06:34:53.885Z,0.29
2022-11-23T06:37:23.605Z,0.31
2022-11-23T06:39:50.083Z,0.32
2022-11-23T06:42:37.761Z,0.32
2022-11-23T06:45:03.743Z,0.34
2022-11-23T06:47:30.277Z,0.32
2022-11-23T06:49:56.747Z,0.32
2022-11-23T06:52:23.277Z,0.34
2022-11-23T06:54:49.768Z,0.34
2022-11-23T06:57:16.344Z,0.38
2022-11-23T06:59:45.048Z,0.39
2022-11-23T07:02:12.517Z,0.39
2022-11-23T07:04:39.109Z,0.39
2022-11-23T07:07:07.799Z,0.41
2022-11-23T07:09:35.054Z,0.42
2022-11-23T07:12:01.791Z,0.43
2022-11-23T07:14:28.355Z,0.45
2022-11-23T07:16:54.921Z,0.50
2022-11-23T07:19:21.394Z,0.50
2022-11-23T07:21:47.955Z,0.51
2022-11-23T07:24:14.477Z,0.56
2022-11-23T07:26:41.041Z,0.57
2022-11-23T07:29:07.598Z,0.55
2022-11-23T07:31:34.080Z,0.58
2022-11-23T07:34:00.549Z,0.58
2022-11-23T07:36:27.053Z,0.60
2022-11-23T07:38:53.582Z,0.66
2022-11-23T07:41:20.100Z,0.68
2022-11-23T07:43:46.663Z,0.68
2022-11-23T07:46:13.283Z,0.70
2022-11-23T07:48:39.847Z,0.71
2022-11-23T07:51:06.370Z,0.72
2022-11-23T07:53:32.881Z,0.71
2022-11-23T07:55:59.460Z,0.72
2022-11-23T07:58:26.237Z,0.72
2022-11-23T08:00:52.815Z,0.70
2022-11-23T08:03:27.730Z,0.70
2022-11-23T08:05:54.957Z,0.69
2022-11-23T08:08:21.510Z,0.67
2022-11-23T08:10:53.005Z,0.68
2022-11-23T08:13:20.410Z,0.68
2022-11-23T08:15:53.251Z,0.66
2022-11-23T08:18:20.910Z,0.67
2022-11-23T08:20:47.478Z,0.70
2022-11-23T08:23:14.037Z,0.70
2022-11-23T08:25:40.586Z,0.70
2022-11-23T08:28:07.161Z,0.73
2022-11-23T08:30:34.431Z,0.73
2022-11-23T08:33:08.065Z,0.78
2022-11-23T08:35:36.529Z,0.83
2022-11-23T08:38:04.527Z,0.89
2022-11-23T08:40:31.156Z,0.95
2022-11-23T08:42:57.706Z,1.03
2022-11-23T08:45:24.241Z,1.05
2022-11-23T08:47:51.192Z,1.08
2022-11-23T08:50:18.032Z,1.10
2022-11-23T08:52:44.576Z,1.12
2022-11-23T08:55:11.652Z,1.15
2022-11-23T08:57:38.430Z,1.17
2022-11-23T09:00:06.087Z,1.21
2022-11-23T09:02:33.032Z,1.26
2022-11-23T09:05:00.696Z,1.35
2022-11-23T09:07:27.313Z,1.41
2022-11-23T09:09:53.917Z,1.49
2022-11-23T09:12:20.408Z,1.58
2022-11-23T09:14:46.959Z,1.70
2022-11-23T09:17:13.481Z,1.78
2022-11-23T09:19:39.930Z,1.90
2022-11-23T09:22:06.450Z,2.01
2022-11-23T09:24:34.410Z,2.15
2022-11-23T09:27:01.014Z,2.25
2022-11-23T09:29:28.170Z,2.34
2022-11-23T09:31:54.753Z,2.46
2022-11-23T09:34:21.269Z,2.58
2022-11-23T09:36:48.100Z,2.68
2022-11-23T09:39:14.820Z,2.76
2022-11-23T09:41:41.255Z,2.87
2022-11-23T09:44:52.234Z,2.95
2022-11-23T09:47:51.583Z,3.10
2022-11-23T09:50:28.337Z,3.19
2022-11-23T09:52:54.909Z,3.28
2022-11-23T09:55:41.789Z,3.39
2022-11-23T09:58:14.086Z,3.47
2022-11-23T10:00:48.814Z,3.55
2022-11-23T10:03:17.586Z,3.64
2022-11-23T10:05:53.948Z,3.74
2022-11-23T10:08:51.366Z,3.86
2022-11-23T10:11:23.657Z,3.95
2022-11-23T10:14:28.398Z,4.07
2022-11-23T10:17:34.000Z,4.17
2022-11-23T10:20:25.243Z,4.28
2022-11-23T10:22:58.700Z,4.37
2022-11-23T10:25:29.186Z,4.50
2022-11-23T10:28:03.039Z,4.62
2022-11-23T10:30:29.572Z,4.72
2022-11-23T10:33:11.014Z,4.82
2022-11-23T10:35:38.462Z,4.92
2022-11-23T10:38:19.084Z,4.97
2022-11-23T10:41:08.838Z,5.10
2022-11-23T10:43:41.663Z,5.24
2022-11-23T10:46:23.708Z,5.40
2022-11-23T10:48:51.666Z,5.57
2022-11-23T10:51:31.795Z,5.67
2022-11-23T10:54:23.409Z,5.82
2022-11-23T10:56:51.861Z,5.96
2022-11-23T10:59:38.924Z,6.05
2022-11-23T11:02:05.395Z,6.13
2022-11-23T11:04:32.074Z,6.21
2022-11-23T11:07:31.557Z,6.36
2022-11-23T11:10:04.097Z,6.39
2022-11-23T11:12:34.580Z,6.50
2022-11-23T11:15:12.228Z,6.59
2022-11-23T11:17:41.039Z,6.66
2022-11-23T11:20:31.549Z,6.74
2022-11-23T11:23:17.573Z,6.74
2022-11-23T11:25:44.651Z,6.79
2022-11-23T11:28:32.860Z,6.81
2022-11-23T11:31:44.461Z,7.00
2022-11-23T11:34:23.793Z,7.18
2022-11-23T11:37:02.317Z,7.21
2022-11-23T11:39:38.116Z,7.16
2022-11-23T11:42:08.991Z,7.18
2022-11-23T11:44:39.831Z,7.23
2022-11-23T11:47:24.677Z,7.26
2022-11-23T11:49:55.100Z,7.40
2022-11-23T11:52:37.333Z,7.51
2022-11-23T11:55:22.610Z,7.65
2022-11-23T11:57:55.035Z,7.76
2022-11-23T12:00:21.811Z,7.80
2022-11-23T12:03:19.423Z,7.70
2022-11-23T12:05:52.269Z,7.52
2022-11-23T12:08:32.134Z,7.38
2022-11-23T12:11:02.136Z,7.21
2022-11-23T12:13:38.697Z,7.14
2022-11-23T12:16:05.162Z,7.04
2022-11-23T12:18:34.432Z,6.98
2022-11-23T12:21:19.334Z,6.90
2022-11-23T12:24:01.782Z,6.90
2022-11-23T12:26:43.284Z,6.89
2022-11-23T12:29:16.562Z,6.87
2022-11-23T12:31:49.111Z,6.86
2022-11-23T12:34:44.509Z,6.85
2022-11-23T12:37:11.500Z,6.80
2022-11-23T12:39:57.772Z,6.83
2022-11-23T12:42:34.798Z,6.85
2022-11-23T12:45:17.475Z,6.83
2022-11-23T12:48:08.290Z,6.78
2022-11-23T12:50:37.773Z,6.77
2022-11-23T12:53:43.299Z,6.79
2022-11-23T12:56:15.651Z,6.76
2022-11-23T12:58:44.546Z,6.78
2022-11-23T13:01:32.488Z,6.76
2022-11-23T13:04:32.811Z,6.75
2022-11-23T13:07:30.308Z,6.63
2022-11-23T13:10:48.049Z,6.60
2022-11-23T13:13:22.630Z,6.50
2022-11-23T13:16:19.936Z,6.44
2022-11-23T13:19:14.826Z,6.41
2022-11-23T13:21:44.655Z,6.37
2022-11-23T13:24:33.686Z,6.35
2022-11-23T13:27:15.681Z,6.29
2022-11-23T13:29:51.295Z,6.25
2022-11-23T13:32:39.416Z,6.23
2022-11-23T13:35:21.215Z,6.18
2022-11-23T13:37:56.917Z,6.17
2022-11-23T13:40:26.522Z,6.16
2022-11-23T13:42:57.656Z,6.10
2022-11-23T13:45:28.394Z,6.04
2022-11-23T13:48:34.353Z,5.98
2022-11-23T13:51:01.467Z,5.91
2022-11-23T13:53:39.690Z,5.86
2022-11-23T13:56:44.881Z,5.80
2022-11-23T13:59:23.680Z,5.73
2022-11-23T14:02:22.263Z,5.71
2022-11-23T14:04:49.462Z,5.66
2022-11-23T14:07:18.797Z,5.59
2022-11-23T14:09:51.541Z,5.55
2022-11-23T14:12:46.682Z,5.49
2022-11-23T14:15:25.497Z,5.42
2022-11-23T14:18:13.769Z,5.38
2022-11-23T14:20:52.315Z,5.31
2022-11-23T14:23:46.521Z,5.28
2022-11-23T14:26:34.183Z,5.19
2022-11-23T14:29:06.373Z,5.06
2022-11-23T14:31:42.569Z,4.98
2022-11-23T14:34:25.904Z,4.95
2022-11-23T14:37:23.475Z,4.88
2022-11-23T14:39:59.769Z,4.82
2022-11-23T14:42:29.393Z,4.75
2022-11-23T14:45:01.689Z,4.71
2022-11-23T14:47:30.370Z,4.64
2022-11-23T14:49:57.417Z,4.58
2022-11-23T14:52:28.744Z,4.52
2022-11-23T14:54:57.898Z,4.44
2022-11-23T14:57:36.224Z,4.36
2022-11-23T15:00:07.169Z,4.28
2022-11-23T15:02:41.266Z,4.20
2022-11-23T15:05:16.751Z,4.16
2022-11-23T15:07:52.487Z,4.04
2022-11-23T15:10:24.854Z,3.94
2022-11-23T15:12:51.426Z,3.87
2022-11-23T15:15:26.283Z,3.79
2022-11-23T15:18:01.431Z,3.69
2022-11-23T15:20:40.868Z,3.61
2022-11-23T15:23:16.559Z,3.52
2022-11-23T15:25:53.709Z,3.47
2022-11-23T15:28:28.781Z,3.42
2022-11-23T15:30:58.610Z,3.34
2022-11-23T15:33:26.215Z,3.29
2022-11-23T15:35:54.691Z,3.23
2022-11-23T15:38:23.906Z,3.15
2022-11-23T15:40:51.476Z,3.08
2022-11-23T15:43:19.921Z,3.00
2022-11-23T15:45:46.559Z,2.94
2022-11-23T15:48:14.903Z,2.89
2022-11-23T15:50:59.556Z,2.83
2022-11-23T15:53:32.481Z,2.70
2022-11-23T15:56:05.548Z,2.67
2022-11-23T15:58:33.979Z,2.62
2022-11-23T16:01:12.509Z,2.61
2022-11-23T16:04:01.084Z,2.58
2022-11-23T16:06:40.869Z,2.50
2022-11-23T16:12:25.758Z,2.40
2022-11-23T16:14:54.427Z,2.35
2022-11-23T16:17:29.458Z,2.30
2022-11-23T16:20:03.949Z,2.27
2022-11-23T16:22:37.875Z,2.24
2022-11-23T16:25:18.055Z,2.19
2022-11-23T16:27:44.695Z,2.15
2022-11-23T16:30:25.631Z,2.11
2022-11-23T16:32:52.494Z,2.07
2022-11-23T16:35:20.768Z,2.07
2022-11-23T16:37:47.410Z,2.06
2022-11-23T16:40:14.659Z,2.06
2022-11-23T16:42:43.301Z,2.07
2022-11-23T16:45:10.746Z,2.07
2022-11-23T16:47:51.874Z,2.05
2022-11-23T16:50:18.677Z,2.04
2022-11-23T16:52:45.242Z,2.02
2022-11-23T16:55:11.740Z,1.97
2022-11-23T16:57:38.911Z,1.94
2022-11-23T17:00:36.098Z,1.93
2022-11-23T17:03:02.751Z,1.91
2022-11-23T17:05:29.267Z,1.90
2022-11-23T17:07:55.877Z,1.87
2022-11-23T17:10:22.574Z,1.89
2022-11-23T17:12:55.107Z,1.89
2022-11-23T17:15:23.336Z,1.90
2022-11-23T17:17:50.250Z,1.89
2022-11-23T17:20:18.005Z,1.87
2022-11-23T17:22:45.044Z,1.87
2022-11-23T17:25:15.007Z,1.83
2022-11-23T17:27:42.339Z,1.82
2022-11-23T17:30:19.257Z,1.79
2022-11-23T17:32:47.848Z,1.79
2022-11-23T17:35:15.021Z,1.78
2022-11-23T17:37:42.158Z,1.77
2022-11-23T17:40:19.985Z,1.77
2022-11-23T17:42:47.451Z,1.77
2022-11-23T17:45:14.625Z,1.79
2022-11-23T17:47:44.136Z,1.80
2022-11-23T17:50:17.561Z,1.82
2022-11-23T17:52:45.549Z,1.81
2022-11-23T17:55:13.071Z,1.83
2022-11-23T17:57:40.450Z,1.84
2022-11-23T18:00:23.117Z,1.86
2022-11-23T18:02:50.009Z,1.84
2022-11-23T18:05:21.530Z,1.86
2022-11-23T18:07:49.351Z,1.84
2022-11-23T18:10:16.354Z,1.83
2022-11-23T18:12:44.689Z,1.82
2022-11-23T18:15:12.122Z,1.77
2022-11-23T18:17:38.776Z,1.76
2022-11-23T18:20:08.255Z,1.74
2022-11-23T18:22:35.144Z,1.72
2022-11-23T18:25:01.949Z,1.70
2022-11-23T18:27:29.816Z,1.67
2022-11-23T18:29:56.557Z,1.62
2022-11-23T18:32:23.118Z,1.58
2022-11-23T18:34:49.676Z,1.57
2022-11-23T18:37:16.398Z,1.55
2022-11-23T18:39:42.932Z,1.52
2022-11-23T18:42:10.016Z,1.50
2022-11-23T18:44:36.448Z,1.49
2022-11-23T18:47:03.039Z,1.45
2022-11-23T18:49:29.579Z,1.42
2022-11-23T18:51:56.123Z,1.40
2022-11-23T18:54:22.611Z,1.36
2022-11-23T18:56:49.152Z,1.33
2022-11-23T18:59:50.122Z,1.30
2022-11-23T19:02:02.298Z,1.27
2022-11-23T19:04:32.499Z,1.24
2022-11-23T19:06:59.038Z,1.20
2022-11-23T19:09:25.492Z,1.18
2022-11-23T19:11:52.003Z,1.13
2022-11-23T19:14:18.537Z,1.11
2022-11-23T19:16:45.079Z,1.07
2022-11-23T19:19:11.700Z,1.04
2022-11-23T19:21:39.186Z,1.02
2022-11-23T19:24:06.675Z,1.02
2022-11-23T19:26:33.252Z,0.99
2022-11-23T19:29:00.149Z,1.01
2022-11-23T19:31:32.217Z,0.98
2022-11-23T19:34:01.284Z,1.00
2022-11-23T19:36:30.119Z,0.97
2022-11-23T19:38:58.206Z,0.98
2022-11-23T19:41:29.793Z,0.96
2022-11-23T19:43:58.919Z,0.95
2022-11-23T19:46:26.306Z,0.94
2022-11-23T19:48:54.872Z,0.93
2022-11-23T19:51:21.480Z,0.94
2022-11-23T19:53:49.350Z,0.94
2022-11-23T19:56:21.727Z,0.98
2022-11-23T19:58:54.768Z,0.98
2022-11-23T20:01:23.496Z,0.96
2022-11-23T20:03:52.147Z,0.96
2022-11-23T20:06:27.259Z,0.91
2022-11-23T20:08:59.120Z,0.87
2022-11-23T20:11:27.425Z,0.94
2022-11-23T20:13:54.850Z,0.83
2022-11-23T20:16:22.423Z,0.74
2022-11-23T20:18:54.647Z,0.72
2022-11-23T20:21:21.129Z,0.69
2022-11-23T20:23:50.307Z,0.68
2022-11-23T20:26:20.238Z,0.62
2022-11-23T20:28:51.337Z,0.61
2022-11-23T20:31:20.860Z,0.58
2022-11-23T20:33:50.600Z,0.58
2022-11-23T20:36:25.217Z,0.59
2022-11-23T20:38:53.157Z,0.60
2022-11-23T20:41:28.075Z,0.61
2022-11-23T20:43:57.788Z,0.63
2022-11-23T20:46:46.109Z,0.66
2022-11-23T20:49:12.201Z,0.64
2022-11-23T20:51:38.879Z,0.66
2022-11-23T20:54:05.472Z,0.67
2022-11-23T20:56:32.410Z,0.67
2022-11-23T20:59:04.228Z,0.68
2022-11-23T21:01:30.872Z,0.67
2022-11-23T21:03:59.300Z,0.68
2022-11-23T21:06:26.834Z,0.66
2022-11-23T21:08:53.786Z,0.63
2022-11-23T21:11:46.175Z,0.64
2022-11-23T21:14:27.147Z,0.62
2022-11-23T21:16:58.961Z,0.59
2022-11-23T21:19:31.021Z,0.55
2022-11-23T21:21:59.248Z,0.52
2022-11-23T21:24:25.968Z,0.48
2022-11-23T21:26:52.661Z,0.45
2022-11-23T21:29:19.484Z,0.41
2022-11-23T21:31:48.408Z,0.37
2022-11-23T21:34:19.092Z,0.33
2022-11-23T21:36:46.044Z,0.30
2022-11-23T21:39:13.741Z,0.26
2022-11-23T21:41:40.334Z,0.24
2022-11-23T21:44:08.445Z,0.17
2022-11-23T21:46:37.206Z,0.10
2022-11-23T21:49:04.713Z,0.04
2022-11-23T21:51:31.363Z,-0.01
2022-11-23T21:54:00.522Z,-0.05
2022-11-23T21:56:28.321Z,-0.08
2022-11-23T21:58:55.614Z,-0.14
2022-11-23T22:01:24.925Z,-0.18
2022-11-23T22:03:54.293Z,-0.21
2022-11-23T22:06:21.333Z,-0.24
2022-11-23T22:08:48.842Z,-0.27
2022-11-23T22:11:23.588Z,-0.34
2022-11-23T22:14:13.606Z,-0.37
2022-11-23T22:16:43.902Z,-0.40
2022-11-23T22:19:12.625Z,-0.44
2022-11-23T22:21:40.857Z,-0.47
2022-11-23T22:24:12.621Z,-0.50
2022-11-23T22:26:39.223Z,-0.53
2022-11-23T22:29:06.855Z,-0.56
2022-11-23T22:31:35.120Z,-0.57
2022-11-23T22:34:02.996Z,-0.64
2022-11-23T22:36:30.176Z,-0.67
2022-11-23T22:39:05.427Z,-0.71
2022-11-23T22:41:37.538Z,-0.73
2022-11-23T22:44:09.271Z,-0.82
2022-11-23T22:46:37.656Z,-0.85
2022-11-23T22:49:04.668Z,-0.88
2022-11-23T22:51:31.366Z,-0.93
2022-11-23T22:53:59.890Z,-0.99
2022-11-23T22:56:27.871Z,-1.05
2022-11-23T22:58:54.743Z,-1.10
2022-11-23T23:01:23.418Z,-1.11
2022-11-23T23:03:55.732Z,-1.15
2022-11-23T23:06:27.577Z,-1.19
2022-11-23T23:08:56.467Z,-1.21
2022-11-23T23:11:24.194Z,-1.25
2022-11-23T23:13:51.903Z,-1.27
2022-11-23T23:16:18.981Z,-1.31
2022-11-23T23:18:45.690Z,-1.33
2022-11-23T23:21:15.051Z,-1.36
2022-11-23T23:23:44.063Z,-1.38
2022-11-23T23:26:12.025Z,-1.41
2022-11-23T23:28:39.282Z,-1.43
2022-11-23T23:31:17.231Z,-1.43
2022-11-23T23:33:45.575Z,-1.44
2022-11-23T23:36:17.847Z,-1.44
2022-11-23T23:38:44.524Z,-1.48
2022-11-23T23:41:12.451Z,-1.49
2022-11-23T23:43:39.810Z,-1.51
2022-11-23T23:46:09.679Z,-1.53
2022-11-23T23:48:38.806Z,-1.55
2022-11-23T23:51:17.675Z,-1.59
2022-11-23T23:53:45.121Z,-1.63
2022-11-23T23:56:13.555Z,-1.66
2022-11-23T23:58:40.147Z,-1.65
